sensor_id;sensor_type;location;lat;lon;timestamp;pressure;altitude;pressure_sealevel;temperature;humidity
40998;BME280;26740;45.944;12.480;2022-10-16T00:01:20;101627.47;;;16.30;100.00
40998;BME280;26740;45.944;12.480;2022-10-16T00:03:46;101629.72;;;16.28;100.00
40998;BME280;26740;45.944;12.480;2022-10-16T00:06:14;101633.06;;;16.25;100.00
40998;BME280;26740;45.944;12.480;2022-10-16T00:08:40;101634.19;;;16.24;100.00
40998;BME280;26740;45.944;12.480;2022-10-16T00:11:11;101640.31;;;16.21;100.00
40998;BME280;26740;45.944;12.480;2022-10-16T00:13:39;101639.19;;;16.17;100.00
40998;BME280;26740;45.944;12.480;2022-10-16T00:16:05;101633.03;;;16.20;100.00
40998;BME280;26740;45.944;12.480;2022-10-16T00:18:31;101638.06;;;16.18;100.00
40998;BME280;26740;45.944;12.480;2022-10-16T00:21:05;101638.69;;;16.30;100.00
40998;BME280;26740;45.944;12.480;2022-10-16T00:23:31;101638.63;;;16.15;100.00
40998;BME280;26740;45.944;12.480;2022-10-16T00:25:59;101644.75;;;16.12;100.00
40998;BME280;26740;45.944;12.480;2022-10-16T00:28:26;101641.94;;;16.12;100.00
40998;BME280;26740;45.944;12.480;2022-10-16T00:30:52;101640.84;;;16.18;100.00
40998;BME280;26740;45.944;12.480;2022-10-16T00:33:19;101650.75;;;16.31;100.00
40998;BME280;26740;45.944;12.480;2022-10-16T00:35:44;101648.53;;;16.33;100.00
40998;BME280;26740;45.944;12.480;2022-10-16T00:38:10;101650.25;;;16.44;100.00
40998;BME280;26740;45.944;12.480;2022-10-16T00:40:36;101642.41;;;16.41;100.00
40998;BME280;26740;45.944;12.480;2022-10-16T00:43:01;101649.38;;;16.39;100.00
40998;BME280;26740;45.944;12.480;2022-10-16T00:45:27;101648.53;;;16.33;100.00
40998;BME280;26740;45.944;12.480;2022-10-16T00:47:54;101645.44;;;16.35;100.00
40998;BME280;26740;45.944;12.480;2022-10-16T00:50:29;101649.38;;;16.39;100.00
40998;BME280;26740;45.944;12.480;2022-10-16T00:52:55;101649.41;;;16.44;100.00
40998;BME280;26740;45.944;12.480;2022-10-16T00:55:23;101661.50;;;16.49;100.00
40998;BME280;26740;45.944;12.480;2022-10-16T00:57:50;101653.41;;;16.58;100.00
40998;BME280;26740;45.944;12.480;2022-10-16T01:00:20;101648.63;;;16.59;100.00
40998;BME280;26740;45.944;12.480;2022-10-16T01:02:58;101652.03;;;16.61;100.00
40998;BME280;26740;45.944;12.480;2022-10-16T01:05:37;101650.28;;;16.49;100.00
40998;BME280;26740;45.944;12.480;2022-10-16T01:08:18;101654.78;;;16.51;100.00
40998;BME280;26740;45.944;12.480;2022-10-16T01:10:57;101655.63;;;16.51;100.00
40998;BME280;26740;45.944;12.480;2022-10-16T01:13:29;101656.16;;;16.48;100.00
40998;BME280;26740;45.944;12.480;2022-10-16T01:15:59;101662.28;;;16.35;100.00
40998;BME280;26740;45.944;12.480;2022-10-16T01:18:35;101658.63;;;16.34;100.00
40998;BME280;26740;45.944;12.480;2022-10-16T01:21:22;101667.88;;;16.35;100.00
40998;BME280;26740;45.944;12.480;2022-10-16T01:24:27;101674.63;;;16.39;100.00
40998;BME280;26740;45.944;12.480;2022-10-16T01:29:35;101668.41;;;16.32;100.00
40998;BME280;26740;45.944;12.480;2022-10-16T01:32:14;101674.84;;;16.32;100.00
40998;BME280;26740;45.944;12.480;2022-10-16T01:34:48;101669.50;;;16.30;100.00
40998;BME280;26740;45.944;12.480;2022-10-16T01:37:24;101669.00;;;16.39;100.00
40998;BME280;26740;45.944;12.480;2022-10-16T01:39:55;101671.75;;;16.28;100.00
40998;BME280;26740;45.944;12.480;2022-10-16T01:42:28;101675.94;;;16.26;100.00
40998;BME280;26740;45.944;12.480;2022-10-16T01:44:56;101669.50;;;16.25;100.00
40998;BME280;26740;45.944;12.480;2022-10-16T01:47:25;101671.41;;;16.20;100.00
40998;BME280;26740;45.944;12.480;2022-10-16T01:49:53;101672.28;;;16.20;100.00
40998;BME280;26740;45.944;12.480;2022-10-16T01:52:23;101670.56;;;16.19;100.00
40998;BME280;26740;45.944;12.480;2022-10-16T01:54:50;101679.84;;;16.25;100.00
40998;BME280;26740;45.944;12.480;2022-10-16T01:57:18;101671.41;;;16.20;100.00
40998;BME280;26740;45.944;12.480;2022-10-16T01:59:53;101675.13;;;16.25;100.00
40998;BME280;26740;45.944;12.480;2022-10-16T02:02:21;101673.16;;;16.26;100.00
40998;BME280;26740;45.944;12.480;2022-10-16T02:05:30;101676.44;;;16.18;100.00
40998;BME280;26740;45.944;12.480;2022-10-16T02:07:54;101680.03;;;16.08;100.00
40998;BME280;26740;45.944;12.480;2022-10-16T02:10:20;101675.81;;;16.05;100.00
40998;BME280;26740;45.944;12.480;2022-10-16T02:12:55;101683.09;;;16.06;100.00
40998;BME280;26740;45.944;12.480;2022-10-16T02:15:21;101680.88;;;16.08;100.00
40998;BME280;26740;45.944;12.480;2022-10-16T02:17:47;101687.28;;;16.04;100.00
40998;BME280;26740;45.944;12.480;2022-10-16T02:20:12;101679.78;;;16.15;100.00
40998;BME280;26740;45.944;12.480;2022-10-16T02:22:45;101687.91;;;16.16;100.00
40998;BME280;26740;45.944;12.480;2022-10-16T02:25:52;101678.81;;;15.94;100.00
40998;BME280;26740;45.944;12.480;2022-10-16T02:28:27;101679.03;;;15.87;100.00
40998;BME280;26740;45.944;12.480;2022-10-16T02:31:00;101686.50;;;15.76;100.00
40998;BME280;26740;45.944;12.480;2022-10-16T02:33:26;101685.66;;;15.76;100.00
40998;BME280;26740;45.944;12.480;2022-10-16T02:35:55;101689.06;;;15.78;100.00
40998;BME280;26740;45.944;12.480;2022-10-16T02:38:22;101689.66;;;15.85;100.00
40998;BME280;26740;45.944;12.480;2022-10-16T02:40:48;101692.25;;;15.97;100.00
40998;BME280;26740;45.944;12.480;2022-10-16T02:43:15;101698.44;;;15.94;100.00
40998;BME280;26740;45.944;12.480;2022-10-16T02:45:41;101703.13;;;15.88;100.00
40998;BME280;26740;45.944;12.480;2022-10-16T02:48:07;101704.19;;;15.82;100.00
40998;BME280;26740;45.944;12.480;2022-10-16T02:50:32;101698.91;;;15.85;100.00
40998;BME280;26740;45.944;12.480;2022-10-16T02:52:58;101708.47;;;15.89;100.00
40998;BME280;26740;45.944;12.480;2022-10-16T02:55:23;101699.84;;;15.96;100.00
40998;BME280;26740;45.944;12.480;2022-10-16T02:57:49;101704.34;;;16.02;100.00
40998;BME280;26740;45.944;12.480;2022-10-16T03:00:16;101706.31;;;16.02;100.00
40998;BME280;26740;45.944;12.480;2022-10-16T03:02:42;101709.59;;;15.88;100.00
40998;BME280;26740;45.944;12.480;2022-10-16T03:05:09;101702.50;;;15.81;100.00
40998;BME280;26740;45.944;12.480;2022-10-16T03:07:35;101703.81;;;15.73;100.00
40998;BME280;26740;45.944;12.480;2022-10-16T03:10:00;101704.91;;;15.72;100.00
40998;BME280;26740;45.944;12.480;2022-10-16T03:12:27;101707.13;;;15.70;100.00
40998;BME280;26740;45.944;12.480;2022-10-16T03:14:53;101698.22;;;15.73;100.00
40998;BME280;26740;45.944;12.480;2022-10-16T03:17:19;101694.56;;;15.72;100.00
40998;BME280;26740;45.944;12.480;2022-10-16T03:19:44;101703.06;;;15.83;100.00
40998;BME280;26740;45.944;12.480;2022-10-16T03:22:10;101704.19;;;15.82;100.00
40998;BME280;26740;45.944;12.480;2022-10-16T03:24:36;101706.19;;;15.86;100.00
40998;BME280;26740;45.944;12.480;2022-10-16T03:27:02;101703.69;;;15.90;100.00
40998;BME280;26740;45.944;12.480;2022-10-16T03:29:27;101701.94;;;15.79;100.00
40998;BME280;26740;45.944;12.480;2022-10-16T03:31:55;101711.44;;;15.78;100.00
40998;BME280;26740;45.944;12.480;2022-10-16T03:34:21;101701.34;;;15.77;100.00
40998;BME280;26740;45.944;12.480;2022-10-16T03:36:47;101699.31;;;15.72;100.00
40998;BME280;26740;45.944;12.480;2022-10-16T03:39:13;101708.47;;;15.62;100.00
40998;BME280;26740;45.944;12.480;2022-10-16T03:41:38;101712.38;;;15.61;100.00
40998;BME280;26740;45.944;12.480;2022-10-16T03:44:05;101709.56;;;15.61;100.00
40998;BME280;26740;45.944;12.480;2022-10-16T03:46:31;101708.16;;;15.59;100.00
40998;BME280;26740;45.944;12.480;2022-10-16T03:48:56;101712.16;;;15.68;100.00
40998;BME280;26740;45.944;12.480;2022-10-16T03:51:22;101713.56;;;15.70;100.00
40998;BME280;26740;45.944;12.480;2022-10-16T03:53:48;101709.09;;;15.69;100.00
40998;BME280;26740;45.944;12.480;2022-10-16T03:56:13;101710.59;;;15.77;100.00
40998;BME280;26740;45.944;12.480;2022-10-16T03:58:39;101703.94;;;15.83;100.00
40998;BME280;26740;45.944;12.480;2022-10-16T04:01:04;101711.06;;;15.69;100.00
40998;BME280;26740;45.944;12.480;2022-10-16T04:03:30;101713.13;;;15.51;100.00
40998;BME280;26740;45.944;12.480;2022-10-16T04:05:56;101718.34;;;15.43;100.00
40998;BME280;26740;45.944;12.480;2022-10-16T04:08:22;101712.22;;;15.46;100.00
40998;BME280;26740;45.944;12.480;2022-10-16T04:10:48;101718.56;;;15.36;100.00
40998;BME280;26740;45.944;12.480;2022-10-16T04:13:14;101717.41;;;15.32;100.00
40998;BME280;26740;45.944;12.480;2022-10-16T04:15:39;101722.31;;;15.20;100.00
40998;BME280;26740;45.944;12.480;2022-10-16T04:18:05;101721.00;;;15.05;100.00
40998;BME280;26740;45.944;12.480;2022-10-16T04:20:31;101721.41;;;14.92;100.00
40998;BME280;26740;45.944;12.480;2022-10-16T04:22:57;101720.44;;;14.81;100.00
40998;BME280;26740;45.944;12.480;2022-10-16T04:25:22;101719.53;;;14.75;100.00
40998;BME280;26740;45.944;12.480;2022-10-16T04:27:48;101719.72;;;14.69;100.00
40998;BME280;26740;45.944;12.480;2022-10-16T04:30:13;101711.78;;;14.60;100.00
40998;BME280;26740;45.944;12.480;2022-10-16T04:32:39;101719.13;;;14.50;100.00
40998;BME280;26740;45.944;12.480;2022-10-16T04:35:07;101714.59;;;14.44;100.00
40998;BME280;26740;45.944;12.480;2022-10-16T04:37:33;101706.97;;;14.39;100.00
40998;BME280;26740;45.944;12.480;2022-10-16T04:39:58;101712.41;;;14.29;100.00
40998;BME280;26740;45.944;12.480;2022-10-16T04:42:24;101711.50;;;14.23;100.00
40998;BME280;26740;45.944;12.480;2022-10-16T04:44:50;101706.00;;;14.11;100.00
40998;BME280;26740;45.944;12.480;2022-10-16T04:47:15;101707.53;;;14.02;100.00
40998;BME280;26740;45.944;12.480;2022-10-16T04:49:41;101704.16;;;14.00;100.00
40998;BME280;26740;45.944;12.480;2022-10-16T04:52:07;101713.28;;;13.95;100.00
40998;BME280;26740;45.944;12.480;2022-10-16T04:54:34;101711.19;;;13.86;100.00
40998;BME280;26740;45.944;12.480;2022-10-16T04:56:59;101706.59;;;13.79;100.00
40998;BME280;26740;45.944;12.480;2022-10-16T04:59:25;101715.06;;;13.84;100.00
40998;BME280;26740;45.944;12.480;2022-10-16T05:01:50;101709.72;;;13.83;100.00
40998;BME280;26740;45.944;12.480;2022-10-16T05:04:16;101710.22;;;13.80;100.00
40998;BME280;26740;45.944;12.480;2022-10-16T05:06:42;101707.38;;;13.75;100.00
40998;BME280;26740;45.944;12.480;2022-10-16T05:09:09;101716.25;;;13.72;100.00
40998;BME280;26740;45.944;12.480;2022-10-16T05:11:34;101711.75;;;13.71;100.00
40998;BME280;26740;45.944;12.480;2022-10-16T05:14:00;101715.13;;;13.73;100.00
40998;BME280;26740;45.944;12.480;2022-10-16T05:16:26;101707.38;;;13.75;100.00
40998;BME280;26740;45.944;12.480;2022-10-16T05:18:52;101721.13;;;13.81;100.00
40998;BME280;26740;45.944;12.480;2022-10-16T05:21:19;101715.91;;;13.85;100.00
40998;BME280;26740;45.944;12.480;2022-10-16T05:23:45;101716.84;;;13.91;100.00
40998;BME280;26740;45.944;12.480;2022-10-16T05:26:10;101715.06;;;14.01;100.00
40998;BME280;26740;45.944;12.480;2022-10-16T05:28:36;101717.94;;;14.07;100.00
40998;BME280;26740;45.944;12.480;2022-10-16T05:31:08;101726.41;;;14.12;100.00
40998;BME280;26740;45.944;12.480;2022-10-16T05:33:34;101727.91;;;14.19;100.00
40998;BME280;26740;45.944;12.480;2022-10-16T05:36:05;101732.53;;;14.31;100.00
40998;BME280;26740;45.944;12.480;2022-10-16T05:38:33;101729.41;;;14.27;100.00
40998;BME280;26740;45.944;12.480;2022-10-16T05:40:59;101733.47;;;14.36;100.00
40998;BME280;26740;45.944;12.480;2022-10-16T05:43:26;101732.63;;;14.36;100.00
40998;BME280;26740;45.944;12.480;2022-10-16T05:48:20;101743.81;;;14.36;100.00
40998;BME280;26740;45.944;12.480;2022-10-16T05:50:46;101741.09;;;14.58;100.00
40998;BME280;26740;45.944;12.480;2022-10-16T05:53:11;101744.47;;;14.60;100.00
40998;BME280;26740;45.944;12.480;2022-10-16T05:55:37;101748.19;;;14.66;100.00
40998;BME280;26740;45.944;12.480;2022-10-16T05:58:02;101749.81;;;14.62;100.00
40998;BME280;26740;45.944;12.480;2022-10-16T06:00:28;101749.13;;;14.54;100.00
40998;BME280;26740;45.944;12.480;2022-10-16T06:02:53;101750.06;;;14.60;100.00
40998;BME280;26740;45.944;12.480;2022-10-16T06:05:19;101753.91;;;14.76;100.00
40998;BME280;26740;45.944;12.480;2022-10-16T06:07:44;101764.38;;;14.86;100.00
40998;BME280;26740;45.944;12.480;2022-10-16T06:10:10;101762.44;;;14.86;100.00
40998;BME280;26740;45.944;12.480;2022-10-16T06:12:35;101774.22;;;14.88;100.00
40998;BME280;26740;45.944;12.480;2022-10-16T06:15:01;101775.19;;;14.99;100.00
40998;BME280;26740;45.944;12.480;2022-10-16T06:17:27;101782.53;;;15.05;100.00
40998;BME280;26740;45.944;12.480;2022-10-16T06:19:52;101786.28;;;15.11;100.00
40998;BME280;26740;45.944;12.480;2022-10-16T06:22:18;101788.34;;;15.21;100.00
40998;BME280;26740;45.944;12.480;2022-10-16T06:24:43;101802.38;;;15.26;100.00
40998;BME280;26740;45.944;12.480;2022-10-16T06:27:09;101801.63;;;15.30;100.00
40998;BME280;26740;45.944;12.480;2022-10-16T06:29:34;101797.81;;;15.42;100.00
40998;BME280;26740;45.944;12.480;2022-10-16T06:32:00;101811.69;;;15.53;100.00
40998;BME280;26740;45.944;12.480;2022-10-16T06:34:25;101808.78;;;15.70;100.00
40998;BME280;26740;45.944;12.480;2022-10-16T06:36:51;101810.94;;;15.85;100.00
40998;BME280;26740;45.944;12.480;2022-10-16T06:39:16;101814.69;;;15.96;100.00
40998;BME280;26740;45.944;12.480;2022-10-16T06:41:42;101814.69;;;15.96;100.00
40998;BME280;26740;45.944;12.480;2022-10-16T06:44:08;101821.38;;;15.95;100.00
40998;BME280;26740;45.944;12.480;2022-10-16T06:46:33;101825.94;;;16.01;100.00
40998;BME280;26740;45.944;12.480;2022-10-16T06:49:00;101823.50;;;16.10;100.00
40998;BME280;26740;45.944;12.480;2022-10-16T06:51:25;101832.31;;;15.97;100.00
40998;BME280;26740;45.944;12.480;2022-10-16T06:53:54;101845.13;;;15.87;100.00
40998;BME280;26740;45.944;12.480;2022-10-16T06:56:26;101840.63;;;15.86;100.00
40998;BME280;26740;45.944;12.480;2022-10-16T06:58:53;101840.03;;;16.11;100.00
40998;BME280;26740;45.944;12.480;2022-10-16T07:01:21;101835.94;;;16.24;100.00
40998;BME280;26740;45.944;12.480;2022-10-16T07:03:48;101855.81;;;16.50;100.00
40998;BME280;26740;45.944;12.480;2022-10-16T07:06:18;101848.38;;;16.71;100.00
40998;BME280;26740;45.944;12.480;2022-10-16T07:08:55;101857.69;;;16.77;100.00
40998;BME280;26740;45.944;12.480;2022-10-16T07:11:22;101847.41;;;16.88;100.00
40998;BME280;26740;45.944;12.480;2022-10-16T07:13:50;101860.75;;;17.18;100.00
40998;BME280;26740;45.944;12.480;2022-10-16T07:16:25;101859.63;;;17.14;100.00
40998;BME280;26740;45.944;12.480;2022-10-16T07:18:53;101867.63;;;17.42;100.00
40998;BME280;26740;45.944;12.480;2022-10-16T07:21:24;101870.28;;;17.80;100.00
40998;BME280;26740;45.944;12.480;2022-10-16T07:23:51;101868.16;;;18.13;100.00
40998;BME280;26740;45.944;12.480;2022-10-16T07:26:17;101874.91;;;18.32;100.00
40998;BME280;26740;45.944;12.480;2022-10-16T07:28:43;101878.84;;;18.42;100.00
40998;BME280;26740;45.944;12.480;2022-10-16T07:31:13;101877.16;;;18.61;100.00
40998;BME280;26740;45.944;12.480;2022-10-16T07:33:41;101880.81;;;18.72;100.00
40998;BME280;26740;45.944;12.480;2022-10-16T07:36:09;101890.97;;;18.73;100.00
40998;BME280;26740;45.944;12.480;2022-10-16T07:38:35;101886.88;;;19.46;100.00
40998;BME280;26740;45.944;12.480;2022-10-16T07:41:04;101896.63;;;20.24;100.00
40998;BME280;26740;45.944;12.480;2022-10-16T07:43:30;101895.38;;;20.80;100.00
40998;BME280;26740;45.944;12.480;2022-10-16T07:45:56;101909.34;;;20.95;100.00
40998;BME280;26740;45.944;12.480;2022-10-16T07:48:23;101909.69;;;20.89;100.00
40998;BME280;26740;45.944;12.480;2022-10-16T07:50:49;101907.19;;;21.16;100.00
40998;BME280;26740;45.944;12.480;2022-10-16T07:53:15;101911.31;;;21.96;100.00
40998;BME280;26740;45.944;12.480;2022-10-16T07:55:41;101910.25;;;22.49;100.00
40998;BME280;26740;45.944;12.480;2022-10-16T07:58:07;101908.66;;;22.24;100.00
40998;BME280;26740;45.944;12.480;2022-10-16T08:00:32;101912.53;;;22.09;100.00
40998;BME280;26740;45.944;12.480;2022-10-16T08:02:59;101910.75;;;23.03;100.00
40998;BME280;26740;45.944;12.480;2022-10-16T08:05:28;101910.06;;;22.79;96.14
40998;BME280;26740;45.944;12.480;2022-10-16T08:07:55;101904.56;;;23.01;92.04
40998;BME280;26740;45.944;12.480;2022-10-16T08:10:23;101915.25;;;23.04;92.13
40998;BME280;26740;45.944;12.480;2022-10-16T08:12:50;101912.31;;;23.56;90.25
40998;BME280;26740;45.944;12.480;2022-10-16T08:15:16;101915.34;;;23.88;87.51
40998;BME280;26740;45.944;12.480;2022-10-16T08:17:42;101915.94;;;24.12;86.29
40998;BME280;26740;45.944;12.480;2022-10-16T08:20:08;101917.00;;;24.75;82.99
40998;BME280;26740;45.944;12.480;2022-10-16T08:22:34;101924.03;;;24.05;81.94
40998;BME280;26740;45.944;12.480;2022-10-16T08:25:00;101923.81;;;24.97;79.87
40998;BME280;26740;45.944;12.480;2022-10-16T08:27:31;101927.81;;;24.96;76.56
40998;BME280;26740;45.944;12.480;2022-10-16T08:29:57;101933.22;;;25.69;75.25
40998;BME280;26740;45.944;12.480;2022-10-16T08:32:22;101944.59;;;25.69;73.89
40998;BME280;26740;45.944;12.480;2022-10-16T08:34:48;101948.03;;;24.72;77.17
40998;BME280;26740;45.944;12.480;2022-10-16T08:37:14;101930.47;;;23.97;82.62
40998;BME280;26740;45.944;12.480;2022-10-16T08:39:39;101941.34;;;24.17;79.61
40998;BME280;26740;45.944;12.480;2022-10-16T08:42:24;101938.56;;;23.62;83.60
40998;BME280;26740;45.944;12.480;2022-10-16T08:50:37;101943.28;;;23.39;85.45
40998;BME280;26740;45.944;12.480;2022-10-16T08:53:04;101946.94;;;23.53;85.20
40998;BME280;26740;45.944;12.480;2022-10-16T08:55:57;101953.03;;;23.60;83.98
40998;BME280;26740;45.944;12.480;2022-10-16T08:58:29;101953.78;;;23.66;83.93
40998;BME280;26740;45.944;12.480;2022-10-16T09:01:01;101950.16;;;24.30;80.46
40998;BME280;26740;45.944;12.480;2022-10-16T09:17:54;101957.88;;;24.15;85.52
40998;BME280;26740;45.944;12.480;2022-10-16T09:23:21;101959.88;;;24.01;86.62
40998;BME280;26740;45.944;12.480;2022-10-16T09:25:49;101962.25;;;23.24;90.12
40998;BME280;26740;45.944;12.480;2022-10-16T09:28:17;101958.00;;;23.69;88.10
40998;BME280;26740;45.944;12.480;2022-10-16T09:30:43;101959.44;;;24.21;87.99
40998;BME280;26740;45.944;12.480;2022-10-16T09:33:11;101964.72;;;24.87;82.85
40998;BME280;26740;45.944;12.480;2022-10-16T09:35:38;101968.91;;;24.17;86.69
40998;BME280;26740;45.944;12.480;2022-10-16T09:38:05;101967.00;;;24.12;85.69
40998;BME280;26740;45.944;12.480;2022-10-16T09:40:33;101966.50;;;25.60;82.23
40998;BME280;26740;45.944;12.480;2022-10-16T09:43:32;101966.03;;;24.31;89.06
40998;BME280;26740;45.944;12.480;2022-10-16T09:48:43;101967.81;;;25.00;86.87
40998;BME280;26740;45.944;12.480;2022-10-16T09:51:21;101967.31;;;25.29;81.42
40998;BME280;26740;45.944;12.480;2022-10-16T09:53:48;101974.47;;;25.49;79.22
40998;BME280;26740;45.944;12.480;2022-10-16T09:56:23;101971.78;;;25.44;82.13
40998;BME280;26740;45.944;12.480;2022-10-16T09:58:50;101969.00;;;24.85;84.79
40998;BME280;26740;45.944;12.480;2022-10-16T10:01:19;101967.97;;;24.58;89.70
40998;BME280;26740;45.944;12.480;2022-10-16T10:03:45;101960.75;;;24.38;87.10
40998;BME280;26740;45.944;12.480;2022-10-16T10:06:36;101960.16;;;24.27;89.16
40998;BME280;26740;45.944;12.480;2022-10-16T10:11:55;101956.72;;;23.61;95.10
40998;BME280;26740;45.944;12.480;2022-10-16T10:17:11;101952.47;;;24.28;92.97
40998;BME280;26740;45.944;12.480;2022-10-16T10:19:41;101945.59;;;24.06;94.13
40998;BME280;26740;45.944;12.480;2022-10-16T10:52:41;101937.38;;;24.04;92.48
40998;BME280;26740;45.944;12.480;2022-10-16T10:55:31;101945.16;;;23.43;97.28
40998;BME280;26740;45.944;12.480;2022-10-16T11:03:39;101936.25;;;23.92;94.73
40998;BME280;26740;45.944;12.480;2022-10-16T11:06:25;101942.78;;;24.42;89.71
40998;BME280;26740;45.944;12.480;2022-10-16T11:11:44;101929.34;;;26.57;85.55
40998;BME280;26740;45.944;12.480;2022-10-16T11:14:20;101931.53;;;26.52;77.95
40998;BME280;26740;45.944;12.480;2022-10-16T11:17:10;101938.59;;;25.79;80.61
40998;BME280;26740;45.944;12.480;2022-10-16T11:27:51;101930.44;;;24.47;85.97
40998;BME280;26740;45.944;12.480;2022-10-16T11:30:25;101928.22;;;24.44;85.75
40998;BME280;26740;45.944;12.480;2022-10-16T11:38:32;101927.63;;;22.95;91.54
40998;BME280;26740;45.944;12.480;2022-10-16T11:41:27;101926.41;;;22.49;95.13
40998;BME280;26740;45.944;12.480;2022-10-16T11:46:45;101922.41;;;23.02;91.00
40998;BME280;26740;45.944;12.480;2022-10-16T11:49:16;101925.97;;;23.54;91.81
40998;BME280;26740;45.944;12.480;2022-10-16T11:54:49;101920.06;;;23.92;85.07
40998;BME280;26740;45.944;12.480;2022-10-16T11:57:41;101931.53;;;24.37;85.99
40998;BME280;26740;45.944;12.480;2022-10-16T12:00:37;101929.59;;;24.60;84.59
40998;BME280;26740;45.944;12.480;2022-10-16T12:06:12;101922.25;;;24.09;87.09
40998;BME280;26740;45.944;12.480;2022-10-16T12:08:40;101922.91;;;24.88;87.38
40998;BME280;26740;45.944;12.480;2022-10-16T12:16:56;101925.31;;;23.71;88.63
40998;BME280;26740;45.944;12.480;2022-10-16T12:19:24;101929.22;;;23.61;86.18
40998;BME280;26740;45.944;12.480;2022-10-16T12:21:53;101925.09;;;23.67;89.86
40998;BME280;26740;45.944;12.480;2022-10-16T12:24:41;101923.28;;;24.13;86.83
40998;BME280;26740;45.944;12.480;2022-10-16T12:27:40;101927.66;;;24.70;84.41
40998;BME280;26740;45.944;12.480;2022-10-16T12:30:06;101928.66;;;24.51;83.33
40998;BME280;26740;45.944;12.480;2022-10-16T12:32:35;101935.59;;;25.13;86.21
40998;BME280;26740;45.944;12.480;2022-10-16T12:35:03;101942.53;;;25.52;83.69
40998;BME280;26740;45.944;12.480;2022-10-16T12:37:34;101941.47;;;25.39;81.68
40998;BME280;26740;45.944;12.480;2022-10-16T12:40:11;101936.53;;;25.00;81.29
40998;BME280;26740;45.944;12.480;2022-10-16T12:42:38;101925.59;;;24.25;84.65
40998;BME280;26740;45.944;12.480;2022-10-16T12:45:28;101934.22;;;24.56;82.57
40998;BME280;26740;45.944;12.480;2022-10-16T12:47:55;101929.88;;;24.22;83.19
40998;BME280;26740;45.944;12.480;2022-10-16T12:50:33;101928.50;;;23.83;85.45
40998;BME280;26740;45.944;12.480;2022-10-16T12:53:03;101928.66;;;24.15;84.74
40998;BME280;26740;45.944;12.480;2022-10-16T12:55:42;101935.84;;;24.71;83.55
40998;BME280;26740;45.944;12.480;2022-10-16T13:09:13;101927.31;;;24.35;84.18
40998;BME280;26740;45.944;12.480;2022-10-16T13:15:01;101933.22;;;23.88;87.10
40998;BME280;26740;45.944;12.480;2022-10-16T13:17:49;101928.41;;;24.25;87.90
40998;BME280;26740;45.944;12.480;2022-10-16T13:23:30;101936.03;;;24.97;79.86
40998;BME280;26740;45.944;12.480;2022-10-16T13:26:59;101934.47;;;24.69;81.67
40998;BME280;26740;45.944;12.480;2022-10-16T13:29:16;101932.06;;;25.07;82.37
40998;BME280;26740;45.944;12.480;2022-10-16T13:31:43;101935.34;;;24.92;85.46
40998;BME280;26740;45.944;12.480;2022-10-16T13:34:17;101945.03;;;25.22;84.83
40998;BME280;26740;45.944;12.480;2022-10-16T13:36:48;101939.50;;;25.17;84.27
40998;BME280;26740;45.944;12.480;2022-10-16T13:39:28;101944.19;;;24.68;86.44
40998;BME280;26740;45.944;12.480;2022-10-16T13:44:26;101937.03;;;24.34;87.74
40998;BME280;26740;45.944;12.480;2022-10-16T13:47:00;101942.69;;;24.34;88.15
40998;BME280;26740;45.944;12.480;2022-10-16T13:49:26;101936.34;;;24.14;88.57
40998;BME280;26740;45.944;12.480;2022-10-16T13:51:57;101941.03;;;24.19;87.41
40998;BME280;26740;45.944;12.480;2022-10-16T13:54:24;101943.59;;;23.93;88.30
40998;BME280;26740;45.944;12.480;2022-10-16T13:56:49;101937.72;;;23.89;90.61
40998;BME280;26740;45.944;12.480;2022-10-16T13:59:34;101943.91;;;23.91;89.91
40998;BME280;26740;45.944;12.480;2022-10-16T14:02:04;101946.69;;;23.82;89.08
40998;BME280;26740;45.944;12.480;2022-10-16T14:04:32;101948.72;;;23.35;91.44
40998;BME280;26740;45.944;12.480;2022-10-16T14:06:58;101945.50;;;23.42;92.45
40998;BME280;26740;45.944;12.480;2022-10-16T14:09:27;101949.31;;;23.18;94.66
40998;BME280;26740;45.944;12.480;2022-10-16T14:11:55;101947.53;;;23.08;94.62
40998;BME280;26740;45.944;12.480;2022-10-16T14:14:22;101950.97;;;23.05;93.29
40998;BME280;26740;45.944;12.480;2022-10-16T14:16:48;101945.56;;;23.23;93.59
40998;BME280;26740;45.944;12.480;2022-10-16T14:19:26;101955.28;;;23.17;94.90
40998;BME280;26740;45.944;12.480;2022-10-16T14:21:52;101948.19;;;23.00;96.14
40998;BME280;26740;45.944;12.480;2022-10-16T14:26:57;101951.47;;;22.75;99.03
40998;BME280;26740;45.944;12.480;2022-10-16T14:29:25;101958.50;;;22.77;97.70
40998;BME280;26740;45.944;12.480;2022-10-16T14:32:05;101962.88;;;22.69;99.09
40998;BME280;26740;45.944;12.480;2022-10-16T14:34:36;101959.06;;;22.60;98.19
40998;BME280;26740;45.944;12.480;2022-10-16T14:37:25;101955.22;;;22.70;99.48
40998;BME280;26740;45.944;12.480;2022-10-16T14:39:53;101953.16;;;22.76;100.00
40998;BME280;26740;45.944;12.480;2022-10-16T14:42:20;101958.44;;;22.63;100.00
40998;BME280;26740;45.944;12.480;2022-10-16T14:44:50;101957.47;;;22.54;99.04
40998;BME280;26740;45.944;12.480;2022-10-16T14:47:21;101958.00;;;22.56;100.00
40998;BME280;26740;45.944;12.480;2022-10-16T14:49:51;101955.75;;;22.15;99.96
40998;BME280;26740;45.944;12.480;2022-10-16T14:52:18;101948.41;;;22.14;100.00